Observation data for Knox City on 03/10/2018      Previous  Date  Next       Current Mesonet Observations  Soil Data  Daily Summary Page  Observations in Plain Language
KKN1 100600Z 01006KT 13/M01 A2973 RMK A01 T01291013  RH  038%=      5-min Rain = 0
KKN1 100605Z 00007KT 13/M01 A2973 RMK A01 T01291012  RH  038%=      5-min Rain = 0
KKN1 100610Z 36007KT 13/M01 A2974 RMK A01 T01251012  RH  039%=      5-min Rain = 0
KKN1 100615Z 00006KT 12/M01 A2974 RMK A01 T01241012  RH  039%=      5-min Rain = 0
KKN1 100620Z 00005KT 12/M01 A2974 RMK A01 T01211012  RH  040%=      5-min Rain = 0
KKN1 100625Z 36004KT 12/M01 A2974 RMK A01 T01201012  RH  040%=      5-min Rain = 0
KKN1 100630Z 36004KT 12/M01 A2974 RMK A01 T01171013  RH  041%=      5-min Rain = 0
KKN1 100635Z 35003KT 11/M01 A2975 RMK A01 T01131013  RH  042%=      5-min Rain = 0
KKN1 100640Z 34004KT 11/M01 A2975 RMK A01 T01131012  RH  042%=      5-min Rain = 0
KKN1 100645Z 33005KT 12/M01 A2975 RMK A01 T01171012  RH  041%=      5-min Rain = 0
KKN1 100650Z 33005KT 12/M01 A2975 RMK A01 T01161011  RH  042%=      5-min Rain = 0
KKN1 100655Z 36004KT 11/M01 A2974 RMK A01 T01131011  RH  043%=      5-min Rain = 0
KKN1 100700Z 34005KT 11/M01 A2975 RMK A01 T01121011  RH  043%=      5-min Rain = 0
KKN1 100705Z 33004KT 11/M01 A2975 RMK A01 T01111010  RH  043%=      5-min Rain = 0
KKN1 100710Z 32004KT 11/M01 A2975 RMK A01 T01111011  RH  043%=      5-min Rain = 0
KKN1 100715Z 32004KT 11/M01 A2975 RMK A01 T01101011  RH  043%=      5-min Rain = 0
KKN1 100720Z 32005KT 11/M01 A2975 RMK A01 T01071011  RH  044%=      5-min Rain = 0
KKN1 100725Z 31005KT 11/M01 A2975 RMK A01 T01051011  RH  045%=      5-min Rain = 0
KKN1 100730Z 32004KT 10/M01 A2975 RMK A01 T01031012  RH  045%=      5-min Rain = 0
KKN1 100735Z 31004KT 11/M01 A2975 RMK A01 T01051012  RH  045%=      5-min Rain = 0
KKN1 100740Z 34003KT 11/M01 A2975 RMK A01 T01051012  RH  044%=      5-min Rain = 0
KKN1 100745Z 34003KT 11/M01 A2975 RMK A01 T01081012  RH  044%=      5-min Rain = 0
KKN1 100750Z 34004KT 10/M01 A2975 RMK A01 T01001013  RH  046%=      5-min Rain = 0
KKN1 100755Z 32005KT 10/M01 A2975 RMK A01 T00981011  RH  047%=      5-min Rain = 0
KKN1 100800Z 34004KT 10/M01 A2975 RMK A01 T01001011  RH  046%=      5-min Rain = 0
KKN1 100805Z 32002KT 10/M01 A2975 RMK A01 T00961012  RH  047%=      5-min Rain = 0
KKN1 100810Z 30003KT 10/M01 A2974 RMK A01 T00961011  RH  048%=      5-min Rain = 0
KKN1 100815Z 30003KT 10/M01 A2974 RMK A01 T01021010  RH  046%=      5-min Rain = 0
KKN1 100820Z 30004KT 10/M01 A2975 RMK A01 T01001010  RH  047%=      5-min Rain = 0
KKN1 100825Z 28004KT 10/M01 A2975 RMK A01 T01021010  RH  046%=      5-min Rain = 0
KKN1 100830Z 26004KT 09/M02 A2975 RMK A01 T00941016  RH  047%=      5-min Rain = 0
KKN1 100835Z 25005KT 09/M01 A2975 RMK A01 T00881014  RH  049%=      5-min Rain = 0
KKN1 100840Z 26005KT 09/M01 A2975 RMK A01 T00871010  RH  051%=      5-min Rain = 0
KKN1 100845Z 25006KT 09/M01 A2975 RMK A01 T00871011  RH  051%=      5-min Rain = 0
KKN1 100850Z 25006KT 08/M01 A2975 RMK A01 T00841012  RH  051%=      5-min Rain = 0
KKN1 100855Z 26006KT 09/M01 A2974 RMK A01 T00881010  RH  051%=      5-min Rain = 0
KKN1 100900Z 26005KT 09/M01 A2974 RMK A01 T00911011  RH  050%=      5-min Rain = 0
KKN1 100905Z 25005KT 10/M01 A2974 RMK A01 T00971011  RH  047%=      5-min Rain = 0
KKN1 100910Z 25004KT 10/M01 A2974 RMK A01 T00981013  RH  046%=      5-min Rain = 0
KKN1 100915Z 25003KT 09/M01 A2974 RMK A01 T00851014  RH  051%=      5-min Rain = 0
KKN1 100920Z 25003KT 08/M01 A2974 RMK A01 T00761013  RH  054%=      5-min Rain = 0
KKN1 100925Z 26004KT 07/M01 A2973 RMK A01 T00721010  RH  056%=      5-min Rain = 0
KKN1 100930Z 25005KT 08/M01 A2973 RMK A01 T00801008  RH  054%=      5-min Rain = 0
KKN1 100935Z 23002KT 08/M02 A2973 RMK A01 T00751015  RH  054%=      5-min Rain = 0
KKN1 100940Z 22004KT 07/M01 A2973 RMK A01 T00651012  RH  058%=      5-min Rain = 0
KKN1 100945Z 22005KT 06/M01 A2973 RMK A01 T00621013  RH  060%=      5-min Rain = 0
KKN1 100950Z 21006KT 06/M01 A2973 RMK A01 T00601012  RH  061%=      5-min Rain = 0
KKN1 100955Z 20006KT 06/M01 A2973 RMK A01 T00601012  RH  061%=      5-min Rain = 0
KKN1 101000Z 21005KT 06/M01 A2973 RMK A01 T00591012  RH  061%=      5-min Rain = 0
KKN1 101005Z 19006KT 06/M01 A2973 RMK A01 T00601013  RH  060%=      5-min Rain = 0
KKN1 101010Z 19007KT 06/M01 A2973 RMK A01 T00561010  RH  063%=      5-min Rain = 0
KKN1 101015Z 20006KT 06/M01 A2973 RMK A01 T00611011  RH  060%=      5-min Rain = 0
KKN1 101020Z 19007KT 06/M01 A2973 RMK A01 T00571013  RH  061%=      5-min Rain = 0
KKN1 101025Z 19008KT 06/M01 A2973 RMK A01 T00581011  RH  062%=      5-min Rain = 0
KKN1 101030Z 20008KT 06/M01 A2973 RMK A01 T00601010  RH  061%=      5-min Rain = 0
KKN1 101035Z 20009KT 06/M01 A2974 RMK A01 T00631010  RH  060%=      5-min Rain = 0
KKN1 101040Z 21008KT 07/M01 A2974 RMK A01 T00651010  RH  059%=      5-min Rain = 0
KKN1 101045Z 22008KT 07/M01 A2974 RMK A01 T00681009  RH  058%=      5-min Rain = 0
KKN1 101050Z 22008KT 07/M01 A2974 RMK A01 T00731010  RH  056%=      5-min Rain = 0
KKN1 101055Z 23008KT 07/M01 A2974 RMK A01 T00741010  RH  056%=      5-min Rain = 0
KKN1 101100Z 24007KT 08/M01 A2974 RMK A01 T00771012  RH  054%=      5-min Rain = 0
KKN1 101105Z 25006KT 08/M01 A2974 RMK A01 T00811012  RH  053%=      5-min Rain = 0
KKN1 101110Z 25006KT 08/M01 A2974 RMK A01 T00821013  RH  052%=      5-min Rain = 0
KKN1 101115Z 26005KT 08/M01 A2974 RMK A01 T00811013  RH  052%=      5-min Rain = 0
KKN1 101120Z 25006KT 08/M01 A2974 RMK A01 T00791013  RH  053%=      5-min Rain = 0
KKN1 101125Z 25006KT 08/M01 A2975 RMK A01 T00791012  RH  053%=      5-min Rain = 0
KKN1 101130Z 24007KT 08/M01 A2976 RMK A01 T00781013  RH  053%=      5-min Rain = 0
KKN1 101135Z 25006KT 08/M01 A2977 RMK A01 T00771013  RH  053%=      5-min Rain = 0
KKN1 101140Z 26006KT 08/M01 A2977 RMK A01 T00771013  RH  053%=      5-min Rain = 0
KKN1 101145Z 25006KT 08/M01 A2977 RMK A01 T00761014  RH  054%=      5-min Rain = 0
KKN1 101150Z 25006KT 07/M01 A2977 RMK A01 T00731013  RH  055%=      5-min Rain = 0
KKN1 101155Z 24007KT 07/M01 A2977 RMK A01 T00721014  RH  055%=      5-min Rain = 0
KKN1 101200Z 24006KT 07/M01 A2977 RMK A01 T00721014  RH  055%=      5-min Rain = 0
KKN1 101205Z 24006KT 07/M02 A2977 RMK A01 T00721015  RH  055%=      5-min Rain = 0
KKN1 101210Z 24005KT 07/M02 A2977 RMK A01 T00731015  RH  054%=      5-min Rain = 0
KKN1 101215Z 24004KT 07/M02 A2978 RMK A01 T00731016  RH  054%=      5-min Rain = 0
KKN1 101220Z 25004KT 07/M02 A2978 RMK A01 T00731016  RH  054%=      5-min Rain = 0
KKN1 101225Z 25005KT 07/M02 A2978 RMK A01 T00741016  RH  053%=      5-min Rain = 0
KKN1 101230Z 24005KT 08/M02 A2978 RMK A01 T00761016  RH  053%=      5-min Rain = 0
KKN1 101235Z 24005KT 08/M02 A2978 RMK A01 T00771017  RH  052%=      5-min Rain = 0
KKN1 101240Z 25005KT 08/M02 A2977 RMK A01 T00781018  RH  051%=      5-min Rain = 0
KKN1 101245Z 25005KT 08/M02 A2978 RMK A01 T00791018  RH  051%=      5-min Rain = 0
KKN1 101250Z 26005KT 08/M02 A2978 RMK A01 T00781017  RH  051%=      5-min Rain = 0
KKN1 101255Z 26005KT 08/M02 A2977 RMK A01 T00781017  RH  052%=      5-min Rain = 0
KKN1 101300Z 26005KT 08/M02 A2978 RMK A01 T00771017  RH  052%=      5-min Rain = 0
KKN1 101305Z 25005KT 08/M02 A2978 RMK A01 T00761016  RH  052%=      5-min Rain = 0
KKN1 101310Z 25005KT 07/M02 A2978 RMK A01 T00731017  RH  053%=      5-min Rain = 0
KKN1 101315Z 26004KT 08/M02 A2978 RMK A01 T00761016  RH  053%=      5-min Rain = 0
KKN1 101320Z 26002KT 08/M02 A2978 RMK A01 T00751015  RH  053%=      5-min Rain = 0
KKN1 101325Z 24001KT 07/M01 A2978 RMK A01 T00711010  RH  057%=      5-min Rain = 0
KKN1 101330Z 24001KT 07/M01 A2978 RMK A01 T00691009  RH  058%=      5-min Rain = 0
KKN1 101335Z 24000KT 07/M01 A2978 RMK A01 T00671005  RH  061%=      5-min Rain = 0
KKN1 101340Z 23000KT 07/00 A2978 RMK A01 T006800-0  RH  063%=      5-min Rain = 0
KKN1 101345Z 20002KT 07/00 A2978 RMK A01 T00700004  RH  064%=      5-min Rain = 0
KKN1 101350Z 20005KT 07/01 A2978 RMK A01 T00740005  RH  062%=      5-min Rain = 0
KKN1 101355Z 20005KT 08/00 A2979 RMK A01 T00790002  RH  059%=      5-min Rain = 0
KKN1 101400Z 21005KT 08/M00 A2979 RMK A01 T00841001  RH  056%=      5-min Rain = 0
KKN1 101405Z 20007KT 09/M00 A298 RMK A01 T00881004  RH  053%=      5-min Rain = 0
KKN1 101410Z 21007KT 09/M01 A298 RMK A01 T00931008  RH  050%=      5-min Rain = 0
KKN1 101415Z 22005KT 10/M01 A298 RMK A01 T00991011  RH  047%=      5-min Rain = 0
KKN1 101420Z 23005KT 10/M01 A2981 RMK A01 T01041012  RH  045%=      5-min Rain = 0
KKN1 101425Z 23005KT 11/M01 A2981 RMK A01 T01081010  RH  045%=      5-min Rain = 0
KKN1 101430Z 24005KT 11/M01 A298 RMK A01 T01111014  RH  042%=      5-min Rain = 0
KKN1 101435Z 24005KT 12/M01 A298 RMK A01 T01151014  RH  041%=      5-min Rain = 0
KKN1 101440Z 23005KT 12/M02 A2981 RMK A01 T01201017  RH  039%=      5-min Rain = 0
KKN1 101445Z 25004KT 12/M02 A2981 RMK A01 T01241019  RH  037%=      5-min Rain = 0
KKN1 101450Z 25004KT 13/M02 A2981 RMK A01 T01301020  RH  036%=      5-min Rain = 0
KKN1 101455Z 26005KT 13/M03 A2981 RMK A01 T01331025  RH  034%=      5-min Rain = 0
KKN1 101500Z 24004KT 13/M02 A2982 RMK A01 T01331023  RH  034%=      5-min Rain = 0
KKN1 101505Z 23005KT 13/M02 A2982 RMK A01 T01341024  RH  034%=      5-min Rain = 0
KKN1 101510Z 24005KT 14/M03 A2982 RMK A01 T01351025  RH  033%=      5-min Rain = 0
KKN1 101515Z 24004KT 14/M02 A2982 RMK A01 T01361024  RH  033%=      5-min Rain = 0
KKN1 101520Z 23004KT 14/M02 A2982 RMK A01 T01381024  RH  033%=      5-min Rain = 0
KKN1 101525Z 26003KT 14/M02 A2982 RMK A01 T01391023  RH  033%=      5-min Rain = 0
KKN1 101530Z 26003KT 14/M02 A2981 RMK A01 T01411021  RH  033%=      5-min Rain = 0
KKN1 101535Z 26002KT 14/M02 A2981 RMK A01 T01431020  RH  033%=      5-min Rain = 0
KKN1 101540Z 23002KT 15/M02 A2981 RMK A01 T01451020  RH  032%=      5-min Rain = 0
KKN1 101545Z 22003KT 15/M02 A298 RMK A01 T01481020  RH  032%=      5-min Rain = 0
KKN1 101550Z 22003KT 15/M02 A298 RMK A01 T01501022  RH  031%=      5-min Rain = 0
KKN1 101555Z 23002KT 15/M02 A298 RMK A01 T01531023  RH  030%=      5-min Rain = 0
KKN1 101600Z 25001KT 16/M02 A298 RMK A01 T01551021  RH  030%=      5-min Rain = 0
KKN1 101605Z 24001KT 16/M02 A298 RMK A01 T01601020  RH  029%=      5-min Rain = 0
KKN1 101610Z 25002KT 16/M02 A298 RMK A01 T01621018  RH  029%=      5-min Rain = 0
KKN1 101615Z 24004KT 17/M02 A298 RMK A01 T01651017  RH  029%=      5-min Rain = 0
KKN1 101620Z 25004KT 17/M02 A298 RMK A01 T01671016  RH  029%=      5-min Rain = 0
KKN1 101625Z 25004KT 17/M01 A298 RMK A01 T01711010  RH  030%=      5-min Rain = 0
KKN1 101630Z 26007KT 17/M01 A2979 RMK A01 T01711006  RH  030%=      5-min Rain = 0
KKN1 101635Z 26006KT 17/M01 A2979 RMK A01 T01731005  RH  030%=      5-min Rain = 0
KKN1 101640Z 27006KT 18/M01 A2979 RMK A01 T01751007  RH  029%=      5-min Rain = 0
KKN1 101645Z 27005KT 18/M01 A2979 RMK A01 T01751009  RH  029%=      5-min Rain = 0
KKN1 101650Z 25005KT 18/M01 A2979 RMK A01 T01791009  RH  028%=      5-min Rain = 0
KKN1 101655Z 25004KT 18/M01 A2979 RMK A01 T01801010  RH  028%=      5-min Rain = 0
KKN1 101700Z 27003KT 18/M01 A2979 RMK A01 T01831010  RH  027%=      5-min Rain = 0
KKN1 101705Z 26002KT 18/M01 A2978 RMK A01 T01841010  RH  027%=      5-min Rain = 0
KKN1 101710Z 26002KT 19/M01 A2978 RMK A01 T01871010  RH  027%=      5-min Rain = 0
KKN1 101715Z 30001KT 19/M01 A2978 RMK A01 T01881010  RH  027%=      5-min Rain = 0
KKN1 101720Z 29003KT 19/M01 A2978 RMK A01 T01941009  RH  026%=      5-min Rain = 0
KKN1 101725Z 30002KT 20/M01 A2978 RMK A01 T01981010  RH  025%=      5-min Rain = 0
KKN1 101730Z 28002KT 20/M01 A2978 RMK A01 T01971012  RH  025%=      5-min Rain = 0
KKN1 101735Z 27002KT 20/M01 A2978 RMK A01 T01991009  RH  025%=      5-min Rain = 0
KKN1 101740Z 29003KT 20/M01 A2978 RMK A01 T02021011  RH  024%=      5-min Rain = 0
KKN1 101745Z 31001KT 21/M01 A2977 RMK A01 T02101011  RH  023%=      5-min Rain = 0
KKN1 101750Z 27001KT 22/M01 A2977 RMK A01 T02201008  RH  022%=      5-min Rain = 0
KKN1 101755Z 30003KT 22/M01 A2977 RMK A01 T02191012  RH  022%=      5-min Rain = 0
KKN1 101800Z 32002KT 22/M01 A2977 RMK A01 T02151012  RH  022%=      5-min Rain = 0
KKN1 101805Z 29002KT 22/M01 A2977 RMK A01 T02191011  RH  022%=      5-min Rain = 0
KKN1 101810Z 21002KT 22/M01 A2977 RMK A01 T02181012  RH  022%=      5-min Rain = 0
KKN1 101815Z 32003KT 22/M01 A2977 RMK A01 T02201013  RH  021%=      5-min Rain = 0
KKN1 101820Z 34002KT 22/M01 A2977 RMK A01 T02221013  RH  021%=      5-min Rain = 0
KKN1 101825Z 29003KT 23/M01 A2976 RMK A01 T02281014  RH  020%=      5-min Rain = 0
KKN1 101830Z 27003KT 23/M02 A2976 RMK A01 T02281016  RH  020%=      5-min Rain = 0
KKN1 101835Z 28002KT 23/M02 A2976 RMK A01 T02301015  RH  020%=      5-min Rain = 0
KKN1 101840Z 25002KT 23/M02 A2976 RMK A01 T02341018  RH  019%=      5-min Rain = 0
KKN1 101845Z 29002KT 24/M02 A2976 RMK A01 T02361020  RH  018%=      5-min Rain = 0
KKN1 101850Z 36001KT 24/M02 A2975 RMK A01 T02371024  RH  018%=      5-min Rain = 0
KKN1 101855Z 04001KT 24/M02 A2975 RMK A01 T02421021  RH  018%=      5-min Rain = 0
KKN1 101900Z 22003KT 25/M02 A2975 RMK A01 T02481021  RH  017%=      5-min Rain = 0
KKN1 101905Z 23002KT 24/M02 A2974 RMK A01 T02431024  RH  017%=      5-min Rain = 0
KKN1 101910Z 20002KT 24/M02 A2974 RMK A01 T02391024  RH  017%=      5-min Rain = 0
KKN1 101915Z 17001KT 24/M03 A2974 RMK A01 T02441027  RH  017%=      5-min Rain = 0
KKN1 101920Z 18003KT 25/M02 A2974 RMK A01 T02461022  RH  017%=      5-min Rain = 0
KKN1 101925Z 16001KT 24/M02 A2974 RMK A01 T02431023  RH  017%=      5-min Rain = 0
KKN1 101930Z 15002G7KT 25/M02 A2973 RMK A01 T02471022  RH  017%=      5-min Rain = 0
KKN1 101935Z 11002KT 25/M02 A2973 RMK A01 T02471023  RH  017%=      5-min Rain = 0
KKN1 101940Z 13002KT 25/M02 A2973 RMK A01 T02501021  RH  017%=      5-min Rain = 0
KKN1 101945Z 14002KT 26/M02 A2973 RMK A01 T02561023  RH  016%=      5-min Rain = 0
KKN1 101950Z 16003KT 27/M02 A2972 RMK A01 T02651022  RH  015%=      5-min Rain = 0
KKN1 101955Z 13005KT 26/M03 A2972 RMK A01 T02591027  RH  015%=      5-min Rain = 0
KKN1 102000Z 11004KT 26/M03 A2972 RMK A01 T02591026  RH  015%=      5-min Rain = 0
KKN1 102005Z 02003KT 26/M03 A2971 RMK A01 T02571028  RH  015%=      5-min Rain = 0
KKN1 102010Z 04003KT 26/M03 A2971 RMK A01 T02581026  RH  015%=      5-min Rain = 0
KKN1 102015Z 14003KT 26/M03 A2971 RMK A01 T02621027  RH  015%=      5-min Rain = 0
KKN1 102020Z 15003KT 26/M03 A2971 RMK A01 T02641027  RH  015%=      5-min Rain = 0
KKN1 102025Z 11004KT 26/M03 A2971 RMK A01 T02631029  RH  015%=      5-min Rain = 0
KKN1 102030Z 13005KT 26/M03 A2971 RMK A01 T02641028  RH  015%=      5-min Rain = 0
KKN1 102035Z 08003KT 26/M03 A297 RMK A01 T02641028  RH  015%=      5-min Rain = 0
KKN1 102040Z 09004KT 27/M03 A297 RMK A01 T02681028  RH  014%=      5-min Rain = 0
KKN1 102045Z 05002KT 27/M03 A297 RMK A01 T02661031  RH  014%=      5-min Rain = 0
KKN1 102050Z 31002KT 27/M03 A2969 RMK A01 T02681031  RH  014%=      5-min Rain = 0
KKN1 102055Z 11003KT 27/M03 A2969 RMK A01 T02741028  RH  014%=      5-min Rain = 0
KKN1 102100Z 12002KT 28/M03 A2969 RMK A01 T02751029  RH  014%=      5-min Rain = 0
KKN1 102105Z 11004KT 28/M03 A2969 RMK A01 T02771028  RH  014%=      5-min Rain = 0
KKN1 102110Z 17003KT 28/M03 A2969 RMK A01 T02781031  RH  013%=      5-min Rain = 0
KKN1 102115Z 13002KT 28/M03 A2969 RMK A01 T02781032  RH  013%=      5-min Rain = 0
KKN1 102120Z 09004KT 28/M03 A2969 RMK A01 T02751034  RH  013%=      5-min Rain = 0
KKN1 102125Z 06003KT 28/M03 A2969 RMK A01 T02761034  RH  013%=      5-min Rain = 0
KKN1 102130Z 11005KT 28/M03 A2969 RMK A01 T02771032  RH  013%=      5-min Rain = 0
KKN1 102135Z 09004KT 28/M04 A2969 RMK A01 T02751036  RH  013%=      5-min Rain = 0
KKN1 102140Z 11003KT 28/M03 A2968 RMK A01 T02761034  RH  013%=      5-min Rain = 0
KKN1 102145Z 11002KT 28/M04 A2968 RMK A01 T02781038  RH  013%=      5-min Rain = 0
KKN1 102150Z 09003KT 28/M04 A2968 RMK A01 T02821037  RH  012%=      5-min Rain = 0
KKN1 102155Z 10003KT 28/M04 A2968 RMK A01 T02811037  RH  012%=      5-min Rain = 0
KKN1 102200Z 15003KT 28/M04 A2968 RMK A01 T02811038  RH  012%=      5-min Rain = 0
KKN1 102205Z 14005KT 28/M04 A2968 RMK A01 T02831037  RH  012%=      5-min Rain = 0
KKN1 102210Z 15004KT 28/M04 A2968 RMK A01 T02841039  RH  012%=      5-min Rain = 0
KKN1 102215Z 15003KT 29/M04 A2968 RMK A01 T02851041  RH  012%=      5-min Rain = 0
KKN1 102220Z 14003KT 29/M04 A2968 RMK A01 T02881042  RH  011%=      5-min Rain = 0
KKN1 102225Z 14004KT 28/M04 A2968 RMK A01 T02841043  RH  012%=      5-min Rain = 0
KKN1 102230Z 11005KT 28/M04 A2968 RMK A01 T02821040  RH  012%=      5-min Rain = 0
KKN1 102235Z 10005KT 28/M04 A2967 RMK A01 T02811040  RH  012%=      5-min Rain = 0
KKN1 102240Z 09003KT 28/M04 A2967 RMK A01 T02811041  RH  012%=      5-min Rain = 0
KKN1 102245Z 07003KT 28/M04 A2968 RMK A01 T02831044  RH  012%=      5-min Rain = 0
KKN1 102250Z 11004KT 28/M04 A2968 RMK A01 T02841040  RH  012%=      5-min Rain = 0
KKN1 102255Z 10008KT 28/M03 A2968 RMK A01 T02811034  RH  013%=      5-min Rain = 0
KKN1 102300Z 13006KT 28/M03 A2968 RMK A01 T02801034  RH  013%=      5-min Rain = 0
KKN1 102305Z 13006KT 28/M04 A2968 RMK A01 T02801036  RH  013%=      5-min Rain = 0
KKN1 102310Z 13005KT 28/M04 A2968 RMK A01 T02781038  RH  013%=      5-min Rain = 0
KKN1 102315Z 12006KT 28/M04 A2968 RMK A01 T02771037  RH  013%=      5-min Rain = 0
KKN1 102320Z 12006KT 28/M04 A2968 RMK A01 T02781035  RH  013%=      5-min Rain = 0
KKN1 102325Z 13007KT 27/M04 A2969 RMK A01 T02741039  RH  013%=      5-min Rain = 0
KKN1 102330Z 12005KT 27/M04 A2969 RMK A01 T02721038  RH  013%=      5-min Rain = 0
KKN1 102335Z 10004KT 27/M03 A2969 RMK A01 T02731034  RH  013%=      5-min Rain = 0
KKN1 102340Z 12005KT 27/M03 A2969 RMK A01 T02701033  RH  014%=      5-min Rain = 0
KKN1 102345Z 13006KT 26/M03 A2969 RMK A01 T02641028  RH  015%=      5-min Rain = 0
KKN1 102350Z 12006KT 26/M03 A2969 RMK A01 T02571030  RH  015%=      5-min Rain = 0
KKN1 102355Z 09006KT 25/M03 A2969 RMK A01 T02511030  RH  016%=      5-min Rain = 0
KKN1 110000Z 09007KT 25/M03 A2969 RMK A01 T02471034  RH  015%=      5-min Rain = 0
KKN1 110005Z 10007KT 24/M03 A2969 RMK A01 T02411028  RH  017%=      5-min Rain = 0
KKN1 110010Z 10006KT 24/M03 A2969 RMK A01 T02371026  RH  017%=      5-min Rain = 0
KKN1 110015Z 10006KT 23/M03 A2969 RMK A01 T02331025  RH  018%=      5-min Rain = 0
KKN1 110020Z 10007KT 23/M02 A2969 RMK A01 T02261020  RH  019%=      5-min Rain = 0
KKN1 110025Z 11008KT 22/M02 A2969 RMK A01 T02241022  RH  019%=      5-min Rain = 0
KKN1 110030Z 09007KT 23/M02 A2969 RMK A01 T02261024  RH  019%=      5-min Rain = 0
KKN1 110035Z 09007KT 23/M02 A297 RMK A01 T02261020  RH  019%=      5-min Rain = 0
KKN1 110040Z 09007KT 22/M02 A297 RMK A01 T02211019  RH  020%=      5-min Rain = 0
KKN1 110045Z 09006KT 22/M02 A297 RMK A01 T02151016  RH  021%=      5-min Rain = 0
KKN1 110050Z 10007KT 21/M01 A297 RMK A01 T02121014  RH  022%=      5-min Rain = 0
KKN1 110055Z 10006KT 21/M01 A297 RMK A01 T02071012  RH  023%=      5-min Rain = 0
KKN1 110100Z 10006KT 20/M01 A297 RMK A01 T02031013  RH  024%=      5-min Rain = 0
KKN1 110105Z 10006KT 20/M01 A297 RMK A01 T01991013  RH  024%=      5-min Rain = 0
KKN1 110110Z 11006KT 20/M01 A297 RMK A01 T01951013  RH  025%=      5-min Rain = 0
KKN1 110115Z 11006KT 19/M01 A2971 RMK A01 T01941012  RH  025%=      5-min Rain = 0
KKN1 110120Z 11006KT 19/M01 A297 RMK A01 T01901010  RH  026%=      5-min Rain = 0
KKN1 110125Z 11007KT 19/M01 A297 RMK A01 T01891011  RH  026%=      5-min Rain = 0
KKN1 110130Z 12007KT 19/M01 A297 RMK A01 T01871013  RH  026%=      5-min Rain = 0
KKN1 110135Z 12007KT 18/M02 A2971 RMK A01 T01811015  RH  027%=      5-min Rain = 0
KKN1 110140Z 13007KT 17/M02 A2971 RMK A01 T01731015  RH  028%=      5-min Rain = 0
KKN1 110145Z 12007KT 17/M02 A2971 RMK A01 T01721015  RH  028%=      5-min Rain = 0
KKN1 110150Z 11006KT 17/M02 A2971 RMK A01 T01691016  RH  029%=      5-min Rain = 0
KKN1 110155Z 11006KT 17/M02 A2971 RMK A01 T01661016  RH  029%=      5-min Rain = 0
KKN1 110200Z 11006KT 17/M02 A2972 RMK A01 T01671017  RH  029%=      5-min Rain = 0
KKN1 110205Z 12008KT 17/M02 A2972 RMK A01 T01671017  RH  029%=      5-min Rain = 0
KKN1 110210Z 12007KT 16/M02 A2972 RMK A01 T01611016  RH  030%=      5-min Rain = 0
KKN1 110215Z 06008G15KT 17/M02 A2973 RMK A01 T01681017  RH  029%=      5-min Rain = 0
KKN1 110220Z 06009KT 18/M02 A2973 RMK A01 T01831019  RH  026%=      5-min Rain = 0
KKN1 110225Z 07007KT 19/M02 A2973 RMK A01 T01891021  RH  024%=      5-min Rain = 0
KKN1 110230Z 04007KT 18/M02 A2973 RMK A01 T01821017  RH  026%=      5-min Rain = 0
KKN1 110235Z 04008KT 17/M01 A2974 RMK A01 T01741014  RH  028%=      5-min Rain = 0
KKN1 110240Z 04006KT 17/M01 A2974 RMK A01 T01701014  RH  029%=      5-min Rain = 0
KKN1 110245Z 06005KT 17/M01 A2974 RMK A01 T01651013  RH  030%=      5-min Rain = 0
KKN1 110250Z 07005KT 16/M01 A2975 RMK A01 T01631013  RH  030%=      5-min Rain = 0
KKN1 110255Z 06005KT 16/M01 A2975 RMK A01 T01601014  RH  031%=      5-min Rain = 0
KKN1 110300Z 08005KT 16/M01 A2975 RMK A01 T01571014  RH  031%=      5-min Rain = 0
KKN1 110305Z 06006KT 16/M01 A2975 RMK A01 T01561014  RH  032%=      5-min Rain = 0
KKN1 110310Z 04005KT 15/M01 A2976 RMK A01 T01501013  RH  033%=      5-min Rain = 0
KKN1 110315Z 06005KT 15/M01 A2975 RMK A01 T01491012  RH  033%=      5-min Rain = 0
KKN1 110320Z 06006KT 15/M01 A2975 RMK A01 T01491011  RH  034%=      5-min Rain = 0
KKN1 110325Z 06005KT 15/M01 A2975 RMK A01 T01491010  RH  034%=      5-min Rain = 0
KKN1 110330Z 06005KT 15/M01 A2976 RMK A01 T01491009  RH  034%=      5-min Rain = 0
KKN1 110335Z 03006KT 15/M01 A2976 RMK A01 T01461009  RH  035%=      5-min Rain = 0
KKN1 110340Z 03005KT 15/M01 A2977 RMK A01 T01481008  RH  035%=      5-min Rain = 0
KKN1 110345Z 04004KT 15/M01 A2977 RMK A01 T01481008  RH  035%=      5-min Rain = 0
KKN1 110350Z 05004KT 15/M01 A2978 RMK A01 T01521007  RH  034%=      5-min Rain = 0
KKN1 110355Z 06004KT 15/M01 A2978 RMK A01 T01531006  RH  034%=      5-min Rain = 0
KKN1 110400Z 07004KT 15/M01 A2978 RMK A01 T01521006  RH  034%=      5-min Rain = 0
KKN1 110405Z 06005KT 14/M00 A2978 RMK A01 T01381003  RH  038%=      5-min Rain = 0
KKN1 110410Z 07004KT 14/M00 A2978 RMK A01 T01401002  RH  038%=      5-min Rain = 0
KKN1 110415Z 06003KT 14/M00 A2979 RMK A01 T01381004  RH  038%=      5-min Rain = 0
KKN1 110420Z 04004KT 14/M00 A2979 RMK A01 T01381002  RH  039%=      5-min Rain = 0
KKN1 110425Z 05005KT 14/M00 A2979 RMK A01 T01401003  RH  038%=      5-min Rain = 0
KKN1 110430Z 06006KT 14/M00 A2979 RMK A01 T01401003  RH  038%=      5-min Rain = 0
KKN1 110435Z 06005KT 14/M00 A2979 RMK A01 T01401004  RH  038%=      5-min Rain = 0
KKN1 110440Z 05004KT 13/M00 A2979 RMK A01 T01331004  RH  039%=      5-min Rain = 0
KKN1 110445Z 03004KT 13/M00 A2979 RMK A01 T01321002  RH  040%=      5-min Rain = 0
KKN1 110450Z 02006KT 13/00 A298 RMK A01 T01320001  RH  041%=      5-min Rain = 0
KKN1 110455Z 02006KT 13/00 A298 RMK A01 T01280001  RH  042%=      5-min Rain = 0
KKN1 110500Z 02005KT 13/00 A298 RMK A01 T01320000  RH  041%=      5-min Rain = 0
KKN1 110505Z 02004KT 14/00 A298 RMK A01 T01350000  RH  040%=      5-min Rain = 0
KKN1 110510Z 02006KT 13/M00 A2981 RMK A01 T01321002  RH  040%=      5-min Rain = 0
KKN1 110515Z 01007KT 13/M01 A2981 RMK A01 T01321008  RH  039%=      5-min Rain = 0
KKN1 110520Z 01009KT 14/M01 A2981 RMK A01 T01381009  RH  037%=      5-min Rain = 0
KKN1 110525Z 01009KT 14/M01 A2981 RMK A01 T01431008  RH  036%=      5-min Rain = 0
KKN1 110530Z 01009KT 15/M01 A2982 RMK A01 T01461008  RH  035%=      5-min Rain = 0
KKN1 110535Z 01009KT 15/M01 A2982 RMK A01 T01471007  RH  035%=      5-min Rain = 0
KKN1 110540Z 01010KT 15/M01 A2983 RMK A01 T01491005  RH  035%=      5-min Rain = 0
KKN1 110545Z 01009KT 15/M01 A2983 RMK A01 T01511005  RH  035%=      5-min Rain = 0
KKN1 110550Z 01010KT 15/M00 A2984 RMK A01 T01531003  RH  035%=      5-min Rain = 0
KKN1 110555Z 02012KT 16/01 A2984 RMK A01 T01550007  RH  037%=      5-min Rain = 0

Page generated in 0.0257 seconds.